Time;durP1;ratioP1;P1;durP2;ratioP2;P2;SDS_P1;SDS_P2;PMS_P1;PMS_P2;Temp;Humidity;BMP_temperature;BMP_pressure;BME280_temperature;BME280_humidity;BME280_pressure;Samples;Min_cycle;Max_cycle;Signal;HPM_P1;HPM_P2
2023/07/12 00:00:25;;;;;;;33.60;5.73;;;29.20;51.30;;;;;;5062187;28;20188;-67
2023/07/12 00:02:52;;;;;;;23.77;4.83;;;29.30;51.40;;;;;;5049037;28;20193;-67
2023/07/12 00:05:19;;;;;;;29.73;5.57;;;29.20;51.40;;;;;;5047926;28;20220;-67
2023/07/12 00:07:46;;;;;;;35.17;6.37;;;29.20;51.30;;;;;;5027550;28;20339;-67
2023/07/12 00:10:16;;;;;;;33.40;6.00;;;29.20;51.40;;;;;;5029216;28;20236;-67
2023/07/12 00:12:43;;;;;;;43.50;6.73;;;29.20;51.40;;;;;;5026928;28;20205;-67
2023/07/12 00:15:12;;;;;;;32.47;6.03;;;29.20;51.40;;;;;;5029531;28;20210;-67
2023/07/12 00:17:40;;;;;;;39.27;6.20;;;29.20;51.40;;;;;;5039167;28;20212;-68
2023/07/12 00:20:21;;;;;;;55.07;7.87;;;29.10;51.90;;;;;;5043033;28;20196;-67
2023/07/12 00:22:50;;;;;;;31.73;5.80;;;29.10;51.30;;;;;;5038863;28;20207;-66
2023/07/12 00:25:16;;;;;;;34.90;6.07;;;29.10;51.30;;;;;;5028105;28;20212;-69
2023/07/12 00:27:44;;;;;;;48.30;7.03;;;29.20;52.00;;;;;;5027702;28;20233;-70
2023/07/12 00:30:15;;;;;;;35.83;6.07;;;29.10;51.30;;;;;;5044022;28;20200;-67
2023/07/12 00:32:43;;;;;;;35.63;6.20;;;29.10;51.30;;;;;;5040740;28;20676;-67
2023/07/12 00:35:16;;;;;;;25.97;5.20;;;29.10;51.30;;;;;;5031060;28;20567;-75
2023/07/12 00:37:43;;;;;;;37.83;6.23;;;29.10;51.30;;;;;;5033316;28;20219;-68
2023/07/12 00:40:37;;;;;;;41.07;6.80;;;29.10;51.30;;;;;;5027802;28;20589;-71
2023/07/12 00:43:10;;;;;;;31.47;5.93;;;29.10;51.30;;;;;;5030521;28;20207;-67
2023/07/12 00:45:38;;;;;;;29.63;5.43;;;29.10;51.30;;;;;;5047673;28;20196;-68
2023/07/12 00:48:11;;;;;;;29.43;5.73;;;29.10;51.30;;;;;;5038824;28;20231;-67
2023/07/12 00:50:39;;;;;;;76.33;9.43;;;29.10;51.30;;;;;;5025999;28;20200;-70
2023/07/12 00:53:06;;;;;;;27.33;5.07;;;29.10;51.30;;;;;;5047093;28;20209;-72
2023/07/12 00:56:02;;;;;;;38.13;6.17;;;29.10;51.30;;;;;;5045580;28;20947;-72
2023/07/12 00:58:34;;;;;;;44.63;6.93;;;29.10;51.40;;;;;;5041225;28;20219;-68
2023/07/12 01:01:03;;;;;;;66.23;8.93;;;29.10;51.30;;;;;;5030022;28;20728;-66
2023/07/12 01:03:35;;;;;;;32.93;5.93;;;29.10;51.40;;;;;;5032404;28;20212;-74
2023/07/12 01:06:03;;;;;;;53.63;7.80;;;29.10;51.30;;;;;;5027587;28;20283;-67
2023/07/12 01:08:30;;;;;;;33.97;6.40;;;29.10;51.40;;;;;;5027086;28;20225;-70
2023/07/12 01:10:58;;;;;;;36.03;6.17;;;29.10;51.40;;;;;;5026655;28;20205;-75
2023/07/12 01:13:25;;;;;;;46.03;7.13;;;29.00;51.30;;;;;;5026647;28;20205;-67
2023/07/12 01:15:53;;;;;;;38.70;6.33;;;29.10;51.40;;;;;;5027500;28;20211;-67
2023/07/12 01:18:20;;;;;;;55.43;8.13;;;29.10;51.40;;;;;;5028989;28;20744;-74
2023/07/12 01:21:05;;;;;;;32.07;6.13;;;29.10;51.40;;;;;;5026843;28;20201;-77
2023/07/12 01:23:32;;;;;;;33.87;6.23;;;29.00;51.30;;;;;;5026574;28;20641;-72
2023/07/12 01:26:22;;;;;;;25.83;5.20;;;29.10;52.00;;;;;;5027742;28;20211;-71
2023/07/12 01:28:51;;;;;;;32.03;5.83;;;29.00;51.30;;;;;;5026866;28;20315;-70
2023/07/12 01:31:18;;;;;;;30.87;6.23;;;29.00;51.40;;;;;;5026599;28;20231;-68
2023/07/12 01:33:46;;;;;;;34.10;6.17;;;29.00;51.30;;;;;;5031318;28;20204;-69
2023/07/12 01:36:14;;;;;;;30.27;5.67;;;29.00;51.30;;;;;;5046890;28;20271;-69
2023/07/12 01:38:41;;;;;;;34.70;6.40;;;29.00;51.30;;;;;;5037727;28;20197;-71
2023/07/12 01:41:09;;;;;;;28.27;5.60;;;29.00;51.30;;;;;;5031083;28;20773;-68
2023/07/12 01:43:36;;;;;;;31.97;5.83;;;29.00;51.30;;;;;;5046820;28;20200;-68
2023/07/12 01:46:03;;;;;;;33.60;6.30;;;29.00;51.40;;;;;;5042748;28;20563;-68
2023/07/12 01:48:30;;;;;;;37.80;6.17;;;29.00;51.40;;;;;;5046684;28;20598;-69
2023/07/12 01:50:59;;;;;;;28.60;5.83;;;29.00;51.30;;;;;;5041407;28;20201;-68
2023/07/12 01:53:27;;;;;;;30.10;5.87;;;28.90;51.50;;;;;;5026996;28;20561;-69
2023/07/12 01:55:54;;;;;;;36.33;6.80;;;29.00;51.30;;;;;;5027176;28;20205;-68
2023/07/12 01:58:22;;;;;;;34.30;6.33;;;29.00;51.30;;;;;;5026847;28;20223;-68
2023/07/12 02:00:50;;;;;;;36.17;6.20;;;29.00;51.30;;;;;;5026815;28;20190;-68
2023/07/12 02:03:17;;;;;;;21.87;4.87;;;29.00;51.30;;;;;;5049685;28;20204;-69
2023/07/12 02:05:44;;;;;;;40.37;6.37;;;28.90;51.30;;;;;;5041927;28;20205;-68
2023/07/12 02:08:12;;;;;;;22.67;5.00;;;28.90;51.30;;;;;;5041214;28;20224;-73
2023/07/12 02:10:40;;;;;;;30.53;5.43;;;28.90;51.30;;;;;;5029576;28;20201;-73
2023/07/12 02:13:07;;;;;;;36.50;6.57;;;28.90;51.30;;;;;;5045050;28;20282;-70
2023/07/12 02:15:34;;;;;;;26.43;5.20;;;28.90;51.30;;;;;;5030537;28;20633;-76
2023/07/12 02:18:02;;;;;;;25.17;5.00;;;28.80;51.20;;;;;;5029807;28;20201;-74
2023/07/12 02:20:29;;;;;;;38.43;6.47;;;28.80;51.20;;;;;;5029376;28;20205;-74
2023/07/12 02:22:56;;;;;;;31.87;5.97;;;28.90;51.30;;;;;;5029402;28;20209;-76
2023/07/12 02:25:23;;;;;;;25.23;5.27;;;28.80;51.20;;;;;;5029233;28;20204;-70
2023/07/12 02:27:51;;;;;;;28.10;5.00;;;28.80;51.20;;;;;;5030051;28;20677;-71
2023/07/12 02:30:20;;;;;;;27.03;5.53;;;28.80;51.20;;;;;;5043911;28;20211;-68
2023/07/12 02:32:47;;;;;;;29.43;5.77;;;28.80;51.20;;;;;;5046628;28;20452;-69
2023/07/12 02:35:14;;;;;;;48.37;7.00;;;28.80;51.20;;;;;;5030305;28;20201;-69
2023/07/12 02:37:41;;;;;;;20.67;5.17;;;28.80;51.20;;;;;;5033074;28;20236;-68
2023/07/12 02:40:10;;;;;;;41.87;6.93;;;28.80;51.20;;;;;;5045181;28;20224;-67
2023/07/12 02:42:37;;;;;;;24.80;5.50;;;28.80;51.20;;;;;;5047313;28;20207;-68
2023/07/12 02:45:07;;;;;;;31.47;5.77;;;28.80;51.20;;;;;;5048554;28;20204;-70
2023/07/12 02:47:34;;;;;;;27.30;5.60;;;28.80;51.30;;;;;;5049912;28;20212;-71
2023/07/12 02:50:01;;;;;;;36.77;6.40;;;28.80;51.20;;;;;;5047290;28;20707;-68
2023/07/12 02:52:28;;;;;;;26.27;5.33;;;28.80;51.20;;;;;;5043705;28;20550;-68
2023/07/12 02:54:55;;;;;;;35.63;6.20;;;28.70;51.20;;;;;;5032236;28;20212;-68
2023/07/12 02:57:21;;;;;;;36.30;6.27;;;28.70;51.20;;;;;;5029632;28;20207;-68
2023/07/12 02:59:48;;;;;;;29.57;6.03;;;28.70;51.20;;;;;;5029488;28;20211;-68
2023/07/12 03:02:18;;;;;;;25.47;5.70;;;28.70;51.20;;;;;;5028962;28;20213;-68
2023/07/12 03:04:45;;;;;;;23.00;5.00;;;28.70;51.20;;;;;;5029230;28;20208;-68
2023/07/12 03:07:12;;;;;;;28.13;5.27;;;28.70;51.20;;;;;;5034104;28;20200;-71
2023/07/12 03:09:39;;;;;;;29.20;5.43;;;28.70;51.20;;;;;;5045108;28;20562;-67
2023/07/12 03:12:07;;;;;;;46.83;6.77;;;28.70;51.20;;;;;;5034495;28;20207;-67
2023/07/12 03:14:34;;;;;;;27.77;5.63;;;28.70;51.20;;;;;;5040028;28;20204;-68
2023/07/12 03:17:01;;;;;;;30.20;5.97;;;28.70;51.20;;;;;;5031975;28;20219;-68
2023/07/12 03:19:29;;;;;;;21.07;5.23;;;28.70;51.20;;;;;;5029744;28;20199;-68
2023/07/12 03:21:56;;;;;;;37.17;6.33;;;28.70;51.20;;;;;;5034961;28;20686;-67
2023/07/12 03:24:23;;;;;;;24.83;5.07;;;28.70;51.30;;;;;;5042458;28;20204;-68
2023/07/12 03:26:50;;;;;;;24.20;5.37;;;28.60;51.20;;;;;;5043925;28;20200;-68
2023/07/12 03:29:17;;;;;;;26.73;5.33;;;28.60;51.20;;;;;;5029288;28;20232;-68
2023/07/12 03:31:44;;;;;;;21.20;4.80;;;28.60;51.20;;;;;;5028910;28;20193;-72
2023/07/12 03:34:10;;;;;;;30.50;5.73;;;28.60;51.20;;;;;;5045073;28;20542;-68
2023/07/12 03:36:40;;;;;;;26.97;5.60;;;28.60;51.20;;;;;;5044812;28;20216;-68
2023/07/12 03:39:07;;;;;;;29.73;5.87;;;28.60;51.20;;;;;;5028977;28;20233;-69
2023/07/12 03:41:34;;;;;;;41.60;6.80;;;28.60;51.20;;;;;;5028700;28;20661;-68
2023/07/12 03:44:02;;;;;;;22.37;5.00;;;28.60;51.30;;;;;;5047080;28;20551;-69
2023/07/12 03:46:29;;;;;;;34.77;6.50;;;28.60;51.20;;;;;;5041624;28;20598;-69
2023/07/12 03:48:56;;;;;;;28.50;5.67;;;28.50;51.10;;;;;;5044876;28;20224;-68
2023/07/12 03:51:23;;;;;;;27.47;5.40;;;28.50;51.20;;;;;;5048898;28;20199;-68
2023/07/12 03:53:53;;;;;;;37.37;6.50;;;28.50;51.20;;;;;;5038175;28;20216;-68
2023/07/12 03:56:20;;;;;;;28.67;5.50;;;28.50;51.20;;;;;;5028449;28;20223;-74
2023/07/12 03:58:47;;;;;;;33.17;6.00;;;28.50;51.30;;;;;;5029615;28;20220;-69
2023/07/12 04:01:14;;;;;;;46.30;7.13;;;28.50;51.20;;;;;;5034652;28;20200;-68
2023/07/12 04:03:41;;;;;;;32.13;5.97;;;28.50;51.30;;;;;;5028704;28;20197;-68
2023/07/12 04:06:09;;;;;;;26.43;5.40;;;28.50;51.30;;;;;;5028217;28;20443;-72
2023/07/12 04:08:37;;;;;;;25.60;5.43;;;28.50;51.30;;;;;;5028454;28;20251;-68
2023/07/12 04:11:06;;;;;;;27.53;5.60;;;28.50;51.30;;;;;;5028223;28;20200;-68
2023/07/12 04:13:33;;;;;;;42.43;6.80;;;28.50;51.30;;;;;;5034892;28;20204;-69
2023/07/12 04:16:01;;;;;;;28.03;5.40;;;28.50;51.30;;;;;;5044906;28;20230;-68
2023/07/12 04:18:29;;;;;;;34.00;6.50;;;28.50;51.30;;;;;;5033053;28;20211;-71
2023/07/12 04:20:58;;;;;;;22.43;5.10;;;28.50;51.30;;;;;;5028556;28;20204;-68
2023/07/12 04:23:26;;;;;;;29.50;5.50;;;28.50;51.30;;;;;;5028265;28;20189;-68
2023/07/12 04:25:59;;;;;;;31.10;5.97;;;28.50;51.40;;;;;;5039578;28;20285;-67
2023/07/12 04:28:28;;;;;;;31.77;5.77;;;28.50;51.30;;;;;;5030213;28;20715;-69
2023/07/12 04:30:55;;;;;;;29.60;5.77;;;28.50;51.30;;;;;;5037675;28;20203;-68
2023/07/12 04:33:23;;;;;;;45.97;7.57;;;28.50;51.30;;;;;;5046058;28;20207;-68
2023/07/12 04:35:49;;;;;;;24.63;5.17;;;28.50;51.30;;;;;;5027112;28;20682;-67
2023/07/12 04:38:16;;;;;;;32.53;6.20;;;28.50;51.30;;;;;;5043153;28;20234;-68
2023/07/12 04:40:43;;;;;;;29.47;5.90;;;28.50;51.30;;;;;;5027369;28;20220;-68
2023/07/12 04:43:10;;;;;;;27.57;5.57;;;28.40;51.30;;;;;;5039364;28;20235;-68
2023/07/12 04:45:40;;;;;;;30.07;5.93;;;28.40;51.30;;;;;;5035853;28;20204;-71
2023/07/12 04:48:09;;;;;;;31.73;5.57;;;28.40;51.30;;;;;;5033451;28;20631;-74
2023/07/12 04:50:36;;;;;;;33.10;6.17;;;28.40;51.30;;;;;;5027864;28;20291;-78
2023/07/12 04:53:03;;;;;;;22.30;4.90;;;28.40;51.30;;;;;;5041063;28;20678;-75
2023/07/12 04:55:31;;;;;;;47.67;7.33;;;28.40;51.30;;;;;;5039920;28;20230;-70
2023/07/12 04:57:58;;;;;;;69.70;8.97;;;28.40;51.30;;;;;;5039098;28;20200;-66
2023/07/12 05:00:25;;;;;;;31.40;6.13;;;28.40;51.30;;;;;;5035148;28;20200;-66
2023/07/12 05:02:54;;;;;;;29.97;5.60;;;28.40;51.30;;;;;;5036267;28;20673;-67
2023/07/12 05:05:22;;;;;;;27.93;6.00;;;28.40;51.30;;;;;;5042209;28;20208;-66
2023/07/12 05:07:49;;;;;;;30.07;6.30;;;28.40;51.20;;;;;;5030885;28;20213;-66
2023/07/12 05:10:16;;;;;;;28.17;6.07;;;28.40;51.20;;;;;;5047559;28;20195;-79
2023/07/12 05:12:43;;;;;;;49.63;7.97;;;28.40;51.20;;;;;;5044842;28;20201;-78
2023/07/12 05:15:11;;;;;;;48.33;7.57;;;28.40;51.20;;;;;;5032308;28;20192;-79
2023/07/12 05:17:39;;;;;;;41.70;6.87;;;28.40;51.10;;;;;;5044384;28;20204;-79
2023/07/12 05:20:14;;;;;;;46.07;7.60;;;28.40;51.10;;;;;;5042551;28;20204;-79
2023/07/12 05:22:41;;;;;;;55.90;8.23;;;28.40;51.00;;;;;;5039112;28;20192;-79
2023/07/12 05:25:09;;;;;;;24.40;5.53;;;28.40;51.00;;;;;;5027145;28;20208;-66
2023/07/12 05:27:36;;;;;;;56.40;8.53;;;28.30;51.00;;;;;;5027018;28;20201;-67
2023/07/12 05:30:03;;;;;;;41.17;7.17;;;28.30;51.00;;;;;;5035812;28;20232;-65
2023/07/12 05:32:30;;;;;;;42.30;7.20;;;28.30;51.00;;;;;;5045882;28;20656;-66
2023/07/12 05:34:57;;;;;;;39.17;6.77;;;28.30;51.00;;;;;;5036085;28;20200;-66
2023/07/12 05:37:26;;;;;;;24.37;5.50;;;28.30;51.00;;;;;;5032992;28;20672;-68
2023/07/12 05:39:52;;;;;;;32.40;6.03;;;28.30;51.00;;;;;;5043834;28;20598;-70
2023/07/12 05:42:19;;;;;;;31.57;6.23;;;28.20;51.00;;;;;;5048342;28;20216;-69
2023/07/12 05:44:46;;;;;;;39.20;6.93;;;28.20;51.10;;;;;;5036329;28;20192;-66
2023/07/12 05:47:13;;;;;;;31.87;6.53;;;28.20;51.10;;;;;;5031218;28;20212;-70
2023/07/12 05:49:40;;;;;;;33.47;6.27;;;28.20;51.10;;;;;;5051274;28;20229;-70
2023/07/12 05:52:07;;;;;;;39.80;6.50;;;28.20;51.10;;;;;;5037980;28;20201;-69
2023/07/12 05:54:36;;;;;;;41.97;6.87;;;28.20;51.10;;;;;;5045969;28;20644;-66
2023/07/12 05:57:02;;;;;;;48.27;7.70;;;28.10;51.10;;;;;;5030450;28;20547;-66
2023/07/12 05:59:30;;;;;;;36.30;6.53;;;28.10;51.20;;;;;;5034748;28;20212;-66
2023/07/12 06:01:56;;;;;;;39.50;6.77;;;28.10;51.10;;;;;;5033517;28;20201;-66
2023/07/12 06:04:23;;;;;;;34.33;6.13;;;28.10;51.10;;;;;;5031585;28;20212;-66
2023/07/12 06:06:52;;;;;;;39.17;6.97;;;28.10;51.10;;;;;;5035351;28;20205;-66
2023/07/12 06:09:19;;;;;;;24.60;5.40;;;28.10;51.20;;;;;;5045133;28;20223;-66
2023/07/12 06:11:47;;;;;;;27.87;5.87;;;28.00;51.10;;;;;;5036040;28;20197;-66
2023/07/12 06:14:14;;;;;;;31.10;5.97;;;28.00;51.10;;;;;;5043451;28;20235;-66
2023/07/12 06:16:45;;;;;;;51.80;8.00;;;28.00;51.20;;;;;;5046221;28;20193;-66
2023/07/12 06:19:12;;;;;;;23.63;5.20;;;28.00;51.20;;;;;;5039108;28;20343;-69
2023/07/12 06:21:39;;;;;;;39.57;6.70;;;28.00;51.20;;;;;;5038293;28;20202;-76
2023/07/12 06:24:07;;;;;;;28.50;5.73;;;28.00;51.30;;;;;;5039220;28;20565;-75
2023/07/12 06:26:34;;;;;;;25.97;6.07;;;28.00;51.30;;;;;;5032462;28;20201;-78
2023/07/12 06:29:03;;;;;;;35.13;6.70;;;28.00;51.30;;;;;;5031431;28;20239;-76
2023/07/12 06:31:30;;;;;;;50.87;8.30;;;28.00;51.30;;;;;;5031565;28;20201;-73
2023/07/12 06:34:00;;;;;;;34.10;6.43;;;28.00;51.30;;;;;;5029471;28;20196;-72
2023/07/12 06:36:27;;;;;;;47.17;7.80;;;28.00;51.30;;;;;;5029607;28;20213;-78
2023/07/12 06:38:54;;;;;;;34.80;6.73;;;28.00;51.40;;;;;;5044403;28;20228;-77
2023/07/12 06:41:21;;;;;;;28.00;5.87;;;28.00;51.40;;;;;;5047387;28;20205;-80
2023/07/12 06:43:48;;;;;;;29.30;6.47;;;28.00;51.40;;;;;;5049235;28;20315;-70
2023/07/12 06:46:16;;;;;;;33.40;6.33;;;28.00;51.40;;;;;;5028773;28;20963;-73
2023/07/12 06:48:43;;;;;;;26.13;5.77;;;28.00;51.40;;;;;;5029880;28;20232;-74
2023/07/12 06:51:10;;;;;;;42.23;6.60;;;28.00;51.40;;;;;;5031496;28;20657;-77
2023/07/12 06:53:37;;;;;;;47.50;7.37;;;28.00;51.40;;;;;;5036803;28;20668;-76
2023/07/12 06:56:04;;;;;;;40.43;7.50;;;28.00;51.40;;;;;;5040367;28;20204;-75
2023/07/12 06:58:31;;;;;;;30.20;6.00;;;28.00;51.40;;;;;;5063402;28;20204;-66
2023/07/12 07:00:58;;;;;;;23.10;5.17;;;28.00;51.40;;;;;;5030264;28;20195;-67
2023/07/12 07:03:26;;;;;;;31.93;5.87;;;28.00;51.40;;;;;;5047479;28;20192;-66
2023/07/12 07:05:55;;;;;;;26.13;5.97;;;28.00;51.40;;;;;;5036412;28;20293;-66
2023/07/12 07:08:23;;;;;;;49.40;7.60;;;28.00;51.40;;;;;;5034061;28;20200;-67
2023/07/12 07:10:51;;;;;;;33.67;5.83;;;28.00;51.40;;;;;;5049815;28;20210;-66
2023/07/12 07:13:18;;;;;;;31.83;6.27;;;28.00;51.40;;;;;;5043366;28;20243;-66
2023/07/12 07:15:46;;;;;;;30.90;6.20;;;28.00;51.40;;;;;;5037939;28;20203;-66
2023/07/12 07:18:13;;;;;;;35.60;6.57;;;28.00;51.40;;;;;;5032061;28;20204;-66
2023/07/12 07:20:42;;;;;;;27.30;6.27;;;28.00;51.40;;;;;;5035409;28;20219;-67
2023/07/12 07:23:10;;;;;;;30.60;5.93;;;28.00;51.40;;;;;;5044799;28;20209;-66
2023/07/12 07:25:38;;;;;;;25.47;5.57;;;28.00;51.40;;;;;;5040471;28;20269;-66
2023/07/12 07:28:05;;;;;;;32.80;6.00;;;28.00;51.40;;;;;;5037332;28;20211;-65
2023/07/12 07:30:32;;;;;;;54.53;8.23;;;28.00;51.40;;;;;;5035723;28;20220;-66
2023/07/12 07:33:00;;;;;;;25.27;5.60;;;28.00;51.40;;;;;;5033231;28;20200;-66
2023/07/12 07:35:27;;;;;;;37.23;6.70;;;28.00;51.40;;;;;;5030669;28;20681;-66
2023/07/12 07:37:55;;;;;;;42.17;7.43;;;28.10;51.50;;;;;;5033376;28;20220;-66
2023/07/12 07:40:22;;;;;;;36.47;6.93;;;28.10;51.50;;;;;;5047053;28;20315;-66
2023/07/12 07:42:49;;;;;;;40.23;7.17;;;28.10;51.50;;;;;;5042292;28;20200;-67
2023/07/12 07:45:16;;;;;;;25.93;5.77;;;28.10;51.50;;;;;;5047434;28;20204;-66
2023/07/12 07:47:42;;;;;;;36.23;6.73;;;28.10;51.50;;;;;;5046618;28;20206;-77
2023/07/12 07:50:10;;;;;;;20.87;5.23;;;28.10;51.50;;;;;;5042629;28;20224;-65
2023/07/12 07:52:37;;;;;;;38.73;6.90;;;28.10;51.50;;;;;;5048096;28;20208;-76
2023/07/12 07:55:06;;;;;;;26.83;5.57;;;28.10;51.40;;;;;;5032722;28;20219;-77
2023/07/12 07:57:33;;;;;;;27.23;6.30;;;28.10;51.40;;;;;;5030409;28;20205;-74
2023/07/12 08:00:04;;;;;;;37.37;6.63;;;28.10;51.40;;;;;;5028860;28;20205;-70
2023/07/12 08:02:31;;;;;;;51.17;8.17;;;28.10;51.40;;;;;;5030329;28;20207;-81
2023/07/12 08:04:58;;;;;;;22.60;5.43;;;28.20;51.40;;;;;;5038249;28;20196;-75
2023/07/12 08:07:25;;;;;;;33.83;6.20;;;28.20;51.40;;;;;;5045302;28;20211;-71
2023/07/12 08:09:52;;;;;;;26.53;5.87;;;28.10;51.40;;;;;;5036837;28;20699;-70
2023/07/12 08:12:20;;;;;;;25.97;5.17;;;28.20;51.40;;;;;;5047395;28;20258;-78
2023/07/12 08:14:47;;;;;;;33.77;6.83;;;28.20;51.40;;;;;;5048849;28;20242;-69
2023/07/12 08:17:13;;;;;;;30.23;6.00;;;28.20;51.40;;;;;;5041515;28;20215;-75
2023/07/12 08:19:40;;;;;;;28.63;5.60;;;28.20;51.40;;;;;;5042058;28;20203;-70
2023/07/12 08:22:07;;;;;;;26.03;6.23;;;28.20;51.60;;;;;;5027480;28;20189;-77
2023/07/12 08:24:34;;;;;;;40.57;7.27;;;28.20;51.40;;;;;;5034862;28;20215;-76
2023/07/12 08:27:01;;;;;;;53.30;8.20;;;28.20;51.40;;;;;;5038078;28;20208;-74
2023/07/12 08:29:29;;;;;;;42.13;9.73;;;28.30;51.40;;;;;;5034801;28;20233;-67
2023/07/12 08:31:56;;;;;;;54.63;9.37;;;28.30;51.30;;;;;;5028089;28;20205;-70
2023/07/12 08:34:23;;;;;;;34.33;7.87;;;28.30;51.30;;;;;;5028489;28;20219;-75
2023/07/12 08:36:50;;;;;;;27.87;6.97;;;28.30;51.20;;;;;;5027963;28;20216;-70
2023/07/12 08:39:17;;;;;;;25.10;6.03;;;28.30;51.20;;;;;;5037608;28;20220;-71
2023/07/12 08:41:44;;;;;;;33.80;6.77;;;28.30;51.20;;;;;;5049462;28;20207;-68
2023/07/12 08:44:14;;;;;;;31.20;6.17;;;28.30;51.20;;;;;;5044701;28;20199;-78
2023/07/12 08:46:46;;;;;;;54.43;9.03;;;28.30;51.20;;;;;;5047139;28;20204;-77
2023/07/12 08:49:17;;;;;;;38.67;6.43;;;28.30;51.20;;;;;;5047183;28;20219;-67
2023/07/12 08:51:44;;;;;;;23.40;5.80;;;28.30;51.20;;;;;;5048296;28;20215;-81
2023/07/12 08:54:22;;;;;;;20.57;4.93;;;28.30;51.20;;;;;;5048581;28;20228;-66
2023/07/12 08:56:50;;;;;;;19.07;5.53;;;28.40;51.20;;;;;;5032282;28;20196;-65
2023/07/12 08:59:18;;;;;;;29.87;6.40;;;28.40;51.30;;;;;;5038614;28;20871;-65
2023/07/12 09:01:50;;;;;;;36.87;6.83;;;28.40;51.30;;;;;;5027641;28;20200;-65
2023/07/12 09:04:23;;;;;;;43.83;7.90;;;28.40;51.20;;;;;;5028453;28;20197;-66
2023/07/12 09:06:51;;;;;;;34.20;7.03;;;28.40;51.20;;;;;;5046491;28;20210;-65
2023/07/12 09:09:18;;;;;;;29.07;6.00;;;28.40;51.90;;;;;;5047718;28;20321;-67
2023/07/12 09:11:46;;;;;;;29.10;6.47;;;28.40;51.90;;;;;;5050860;28;20208;-67
2023/07/12 09:14:18;;;;;;;42.90;7.27;;;28.40;51.30;;;;;;5049939;28;20232;-67
2023/07/12 09:16:48;;;;;;;37.57;6.80;;;28.40;51.30;;;;;;5051727;28;20686;-65
2023/07/12 09:19:17;;;;;;;17.70;4.83;;;28.40;51.30;;;;;;5052037;28;20212;-74
2023/07/12 09:21:48;;;;;;;43.43;7.33;;;28.40;51.30;;;;;;5033514;28;20669;-72
2023/07/12 09:24:21;;;;;;;30.57;5.97;;;28.50;51.40;;;;;;5031094;28;20756;-65
2023/07/12 09:26:49;;;;;;;23.83;5.63;;;28.50;51.30;;;;;;5031799;28;20694;-77
2023/07/12 09:29:21;;;;;;;30.67;5.97;;;28.50;51.30;;;;;;5046473;28;20208;-68
2023/07/12 09:31:51;;;;;;;30.27;6.00;;;28.50;51.30;;;;;;5031332;28;20201;-65
2023/07/12 09:34:22;;;;;;;21.57;5.20;;;28.50;51.20;;;;;;5036429;28;20201;-74
2023/07/12 09:36:56;;;;;;;30.33;6.23;;;28.50;51.30;;;;;;5051059;28;20218;-65
2023/07/12 09:39:25;;;;;;;29.17;6.03;;;28.60;51.20;;;;;;5048040;28;20227;-77
2023/07/12 09:41:56;;;;;;;24.17;5.50;;;28.60;51.30;;;;;;5051295;28;20260;-79
2023/07/12 09:44:23;;;;;;;25.63;5.60;;;28.60;51.20;;;;;;5051805;28;20192;-65
2023/07/12 09:46:54;;;;;;;33.43;6.00;;;28.70;51.30;;;;;;5051020;28;20206;-82
2023/07/12 09:49:23;;;;;;;22.67;5.37;;;28.70;51.20;;;;;;5050807;28;20193;-66
2023/07/12 09:52:01;;;;;;;26.07;5.60;;;28.70;51.20;;;;;;5051074;28;20655;-66
2023/07/12 09:54:41;;;;;;;27.33;6.00;;;28.70;51.80;;;;;;5051434;28;20194;-78
2023/07/12 09:57:15;;;;;;;19.47;4.93;;;28.70;51.10;;;;;;5050062;28;20208;-66
2023/07/12 09:59:53;;;;;;;22.23;5.67;;;28.80;51.00;;;;;;5051264;28;20250;-65
2023/07/12 10:02:29;;;;;;;43.30;7.27;;;28.70;50.90;;;;;;5050353;28;20188;-65
2023/07/12 10:05:00;;;;;;;35.47;6.50;;;28.80;51.00;;;;;;5050686;28;20659;-70
2023/07/12 10:07:36;;;;;;;27.20;5.90;;;28.80;51.00;;;;;;5050919;28;20235;-67
2023/07/12 10:10:09;;;;;;;30.87;5.97;;;28.80;50.80;;;;;;5050881;28;20227;-82
2023/07/12 10:12:39;;;;;;;20.77;4.80;;;28.80;50.90;;;;;;5038893;28;20213;-65
2023/07/12 10:15:13;;;;;;;74.80;10.30;;;28.80;50.90;;;;;;5036763;28;20205;-71
2023/07/12 10:17:45;;;;;;;35.00;6.00;;;28.80;50.80;;;;;;5042296;28;20189;-72
2023/07/12 10:20:18;;;;;;;26.83;5.43;;;28.80;50.70;;;;;;5044482;28;20578;-66
2023/07/12 10:22:46;;;;;;;29.03;5.70;;;28.80;50.60;;;;;;5043906;28;20577;-77
2023/07/12 10:25:33;;;;;;;27.13;5.40;;;28.80;50.80;;;;;;5031606;28;20204;-66
2023/07/12 10:28:06;;;;;;;27.40;5.27;;;28.80;50.80;;;;;;5032471;28;20339;-67
2023/07/12 10:30:34;;;;;;;27.57;5.67;;;28.80;50.80;;;;;;5030272;28;20228;-66
2023/07/12 10:33:13;;;;;;;25.80;5.33;;;28.80;50.70;;;;;;5044389;28;20200;-68
2023/07/12 10:35:45;;;;;;;21.97;5.03;;;28.90;50.70;;;;;;5050382;28;20206;-67
2023/07/12 10:38:15;;;;;;;19.73;5.10;;;28.90;50.80;;;;;;5046990;28;20240;-66
2023/07/12 10:40:47;;;;;;;27.83;5.23;;;28.90;50.80;;;;;;5050053;28;20206;-72
2023/07/12 10:43:18;;;;;;;36.93;6.77;;;28.90;50.80;;;;;;5047295;28;20200;-74
2023/07/12 10:45:47;;;;;;;34.90;6.47;;;29.00;50.90;;;;;;5044085;28;20214;-65
2023/07/12 10:48:23;;;;;;;43.80;7.13;;;29.00;50.90;;;;;;5042640;28;20200;-64
2023/07/12 10:50:52;;;;;;;27.37;5.67;;;29.10;51.00;;;;;;5043354;28;20575;-64
2023/07/12 10:53:21;;;;;;;24.70;5.27;;;29.20;51.00;;;;;;5040017;28;20200;-67
2023/07/12 10:56:10;;;;;;;27.70;5.70;;;29.30;51.00;;;;;;5030801;28;20603;-65
2023/07/12 10:58:52;;;;;;;32.27;5.87;;;29.30;51.00;;;;;;5040850;28;20204;-69
2023/07/12 11:01:54;;;;;;;121.87;14.13;;;29.40;51.70;;;;;;5028156;28;20207;-75
2023/07/12 11:04:36;;;;;;;37.90;6.37;;;29.50;51.20;;;;;;5031648;28;20230;-73
2023/07/12 11:07:05;;;;;;;65.57;8.87;;;29.60;51.30;;;;;;5028401;28;20576;-73
2023/07/12 11:10:18;;;;;;;27.07;5.30;;;29.80;51.40;;;;;;5028745;28;20205;-68
2023/07/12 11:12:53;;;;;;;27.60;5.67;;;29.90;51.40;;;;;;5005257;28;20239;-82
2023/07/12 11:15:23;;;;;;;42.13;6.50;;;30.10;51.30;;;;;;5028914;28;20200;-72
2023/07/12 11:17:58;;;;;;;29.80;5.53;;;30.20;51.10;;;;;;5045060;28;20283;-73
2023/07/12 11:20:30;;;;;;;29.20;5.53;;;30.30;50.90;;;;;;5044661;28;20204;-66
2023/07/12 11:23:00;;;;;;;25.20;5.37;;;30.50;50.80;;;;;;5037046;28;20208;-72
2023/07/12 11:25:32;;;;;;;50.07;7.40;;;30.60;50.60;;;;;;5032880;28;20235;-73
2023/07/12 11:28:03;;;;;;;34.03;6.10;;;30.70;50.40;;;;;;5040345;28;20201;-66
2023/07/12 11:30:44;;;;;;;54.33;8.00;;;30.80;49.70;;;;;;5029009;28;20231;-67
2023/07/12 11:33:24;;;;;;;47.60;7.60;;;31.00;49.80;;;;;;5026265;28;20323;-68
2023/07/12 11:35:58;;;;;;;55.35;8.10;;;31.20;50.00;;;;;;5045155;28;20843;-67
2023/07/12 11:38:27;;;;;;;30.13;5.53;;;31.30;50.00;;;;;;5041675;28;20235;-67
2023/07/12 11:40:57;;;;;;;25.67;5.22;;;31.40;50.00;;;;;;5044524;28;20212;-67
2023/07/12 11:43:34;;;;;;;24.83;5.07;;;31.60;49.90;;;;;;5048502;28;20244;-67
2023/07/12 11:46:03;;;;;;;30.77;5.55;;;31.60;49.40;;;;;;5049274;28;20203;-74
2023/07/12 11:48:33;;;;;;;39.83;6.60;;;31.80;49.50;;;;;;5049027;28;20278;-67
2023/07/12 11:51:05;;;;;;;20.45;4.65;;;31.90;49.40;;;;;;5039928;28;20289;-71
2023/07/12 11:53:33;;;;;;;27.73;5.38;;;31.90;49.00;;;;;;5029309;28;20259;-69
2023/07/12 11:56:00;;;;;;;25.38;5.20;;;31.90;48.90;;;;;;5029406;28;20220;-67
2023/07/12 11:58:27;;;;;;;44.63;6.60;;;32.00;48.90;;;;;;5047584;28;20205;-67
2023/07/12 12:00:58;;;;;;;26.52;5.50;;;32.10;48.80;;;;;;5049356;28;20212;-67
2023/07/12 12:03:26;;;;;;;38.95;6.40;;;32.10;48.70;;;;;;5036040;28;20621;-66
2023/07/12 12:05:53;;;;;;;27.48;5.28;;;32.10;48.70;;;;;;5047397;28;20203;-66
2023/07/12 12:08:25;;;;;;;22.17;4.63;;;32.10;48.80;;;;;;5048759;28;20203;-72
2023/07/12 12:10:53;;;;;;;23.02;4.70;;;32.20;49.00;;;;;;5047593;28;20234;-67
2023/07/12 12:13:30;;;;;;;17.50;4.18;;;32.20;49.00;;;;;;5034555;28;20197;-66
2023/07/12 12:16:06;;;;;;;20.90;4.65;;;32.30;49.10;;;;;;5043115;28;20204;-67
2023/07/12 12:18:34;;;;;;;41.55;6.85;;;32.40;48.90;;;;;;5027589;28;20676;-66
2023/07/12 12:21:03;;;;;;;17.63;4.53;;;32.50;48.80;;;;;;5039163;28;20200;-66
2023/07/12 12:23:36;;;;;;;46.38;7.63;;;32.70;49.20;;;;;;5037274;28;20208;-67
2023/07/12 12:26:14;;;;;;;21.48;4.75;;;32.80;49.00;;;;;;5028070;28;20197;-67
2023/07/12 12:28:42;;;;;;;27.17;5.05;;;32.80;48.10;;;;;;5027773;28;20205;-67
2023/07/12 12:31:19;;;;;;;33.22;5.85;;;32.90;48.00;;;;;;5030480;28;20216;-69
2023/07/12 12:33:47;;;;;;;26.23;5.22;;;32.90;47.50;;;;;;5028288;28;21008;-67
2023/07/12 12:36:21;;;;;;;29.50;5.75;;;33.00;47.70;;;;;;5031172;28;20201;-67
2023/07/12 12:38:59;;;;;;;45.63;7.55;;;33.00;47.30;;;;;;5041384;28;20220;-67
2023/07/12 12:41:33;;;;;;;34.95;6.05;;;33.00;47.10;;;;;;5047224;28;20206;-67
2023/07/12 12:44:08;;;;;;;84.50;10.75;;;33.00;47.00;;;;;;5029260;28;20937;-65
2023/07/12 12:46:35;;;;;;;29.75;5.47;;;33.00;46.80;;;;;;5035496;28;20565;-68